sensor_id;sensor_type;location;lat;lon;timestamp;P1;durP1;ratioP1;P2;durP2;ratioP2
59830;SDS011;45711;50.108;13.712;2024-03-08T00:01:28;35.60;;;18.08;;
59830;SDS011;45711;50.108;13.712;2024-03-08T00:03:53;46.20;;;19.40;;
59830;SDS011;45711;50.108;13.712;2024-03-08T00:06:19;47.17;;;21.55;;
59830;SDS011;45711;50.108;13.712;2024-03-08T00:08:44;44.60;;;19.58;;
59830;SDS011;45711;50.108;13.712;2024-03-08T00:11:10;59.50;;;20.95;;
59830;SDS011;45711;50.108;13.712;2024-03-08T00:13:36;88.55;;;23.98;;
59830;SDS011;45711;50.108;13.712;2024-03-08T00:16:03;55.33;;;24.13;;
59830;SDS011;45711;50.108;13.712;2024-03-08T00:18:29;68.72;;;26.00;;
59830;SDS011;45711;50.108;13.712;2024-03-08T00:20:55;58.72;;;24.92;;
59830;SDS011;45711;50.108;13.712;2024-03-08T00:23:21;64.68;;;23.95;;
59830;SDS011;45711;50.108;13.712;2024-03-08T00:25:46;62.80;;;23.02;;
59830;SDS011;45711;50.108;13.712;2024-03-08T00:28:12;60.97;;;22.73;;
59830;SDS011;45711;50.108;13.712;2024-03-08T00:30:40;63.78;;;23.70;;
59830;SDS011;45711;50.108;13.712;2024-03-08T00:33:07;65.88;;;25.60;;
59830;SDS011;45711;50.108;13.712;2024-03-08T00:35:32;67.15;;;26.25;;
59830;SDS011;45711;50.108;13.712;2024-03-08T00:37:58;53.78;;;22.92;;
59830;SDS011;45711;50.108;13.712;2024-03-08T00:40:23;46.58;;;20.55;;
59830;SDS011;45711;50.108;13.712;2024-03-08T00:42:49;46.55;;;22.27;;
59830;SDS011;45711;50.108;13.712;2024-03-08T00:45:15;46.78;;;21.25;;
59830;SDS011;45711;50.108;13.712;2024-03-08T00:47:40;46.33;;;21.00;;
59830;SDS011;45711;50.108;13.712;2024-03-08T00:50:10;45.00;;;21.02;;
59830;SDS011;45711;50.108;13.712;2024-03-08T00:52:36;49.67;;;21.60;;
59830;SDS011;45711;50.108;13.712;2024-03-08T00:55:02;47.60;;;21.02;;
59830;SDS011;45711;50.108;13.712;2024-03-08T00:57:28;42.75;;;21.55;;
59830;SDS011;45711;50.108;13.712;2024-03-08T00:59:54;43.67;;;20.17;;
59830;SDS011;45711;50.108;13.712;2024-03-08T01:02:19;45.03;;;20.88;;
59830;SDS011;45711;50.108;13.712;2024-03-08T01:04:46;44.47;;;20.75;;
59830;SDS011;45711;50.108;13.712;2024-03-08T01:07:13;44.47;;;19.52;;
59830;SDS011;45711;50.108;13.712;2024-03-08T01:09:39;45.50;;;20.13;;
59830;SDS011;45711;50.108;13.712;2024-03-08T01:12:05;42.28;;;20.60;;
59830;SDS011;45711;50.108;13.712;2024-03-08T01:14:32;48.00;;;21.08;;
59830;SDS011;45711;50.108;13.712;2024-03-08T01:16:58;62.10;;;24.20;;
59830;SDS011;45711;50.108;13.712;2024-03-08T01:19:24;61.53;;;24.40;;
59830;SDS011;45711;50.108;13.712;2024-03-08T01:21:49;61.60;;;24.25;;
59830;SDS011;45711;50.108;13.712;2024-03-08T01:24:17;52.13;;;23.67;;
59830;SDS011;45711;50.108;13.712;2024-03-08T01:26:43;55.30;;;24.00;;
59830;SDS011;45711;50.108;13.712;2024-03-08T01:29:09;49.47;;;21.00;;
59830;SDS011;45711;50.108;13.712;2024-03-08T01:31:34;47.65;;;21.05;;
59830;SDS011;45711;50.108;13.712;2024-03-08T01:34:01;42.15;;;20.30;;
59830;SDS011;45711;50.108;13.712;2024-03-08T01:36:27;43.38;;;20.33;;
59830;SDS011;45711;50.108;13.712;2024-03-08T01:38:53;47.35;;;21.70;;
59830;SDS011;45711;50.108;13.712;2024-03-08T01:41:20;44.67;;;20.67;;
59830;SDS011;45711;50.108;13.712;2024-03-08T01:43:45;42.67;;;20.88;;
59830;SDS011;45711;50.108;13.712;2024-03-08T01:46:12;46.97;;;21.13;;
59830;SDS011;45711;50.108;13.712;2024-03-08T01:48:41;43.55;;;20.13;;
59830;SDS011;45711;50.108;13.712;2024-03-08T01:51:07;51.92;;;21.02;;
59830;SDS011;45711;50.108;13.712;2024-03-08T01:53:33;64.47;;;26.55;;
59830;SDS011;45711;50.108;13.712;2024-03-08T01:55:59;44.47;;;21.52;;
59830;SDS011;45711;50.108;13.712;2024-03-08T01:58:29;43.67;;;19.55;;
59830;SDS011;45711;50.108;13.712;2024-03-08T02:00:56;47.53;;;19.98;;
59830;SDS011;45711;50.108;13.712;2024-03-08T02:03:23;42.70;;;20.58;;
59830;SDS011;45711;50.108;13.712;2024-03-08T02:05:48;44.35;;;20.92;;
59830;SDS011;45711;50.108;13.712;2024-03-08T02:08:14;46.92;;;20.63;;
59830;SDS011;45711;50.108;13.712;2024-03-08T02:10:41;46.83;;;20.75;;
59830;SDS011;45711;50.108;13.712;2024-03-08T02:13:07;46.45;;;21.15;;
59830;SDS011;45711;50.108;13.712;2024-03-08T02:15:53;42.67;;;21.25;;
59830;SDS011;45711;50.108;13.712;2024-03-08T02:18:21;42.95;;;20.20;;
59830;SDS011;45711;50.108;13.712;2024-03-08T02:20:49;51.33;;;21.40;;
59830;SDS011;45711;50.108;13.712;2024-03-08T02:23:14;46.95;;;21.58;;
59830;SDS011;45711;50.108;13.712;2024-03-08T02:25:40;47.70;;;21.73;;
59830;SDS011;45711;50.108;13.712;2024-03-08T02:28:07;48.65;;;23.63;;
59830;SDS011;45711;50.108;13.712;2024-03-08T02:30:34;49.10;;;22.23;;
59830;SDS011;45711;50.108;13.712;2024-03-08T02:33:01;45.88;;;21.88;;
59830;SDS011;45711;50.108;13.712;2024-03-08T02:35:26;47.75;;;21.92;;
59830;SDS011;45711;50.108;13.712;2024-03-08T02:37:53;45.78;;;22.17;;
59830;SDS011;45711;50.108;13.712;2024-03-08T02:40:19;51.75;;;22.67;;
59830;SDS011;45711;50.108;13.712;2024-03-08T02:42:44;45.25;;;21.38;;
59830;SDS011;45711;50.108;13.712;2024-03-08T02:45:10;50.05;;;22.77;;
59830;SDS011;45711;50.108;13.712;2024-03-08T02:47:35;43.25;;;21.63;;
59830;SDS011;45711;50.108;13.712;2024-03-08T02:50:01;47.60;;;21.88;;
59830;SDS011;45711;50.108;13.712;2024-03-08T02:52:28;46.55;;;22.05;;
59830;SDS011;45711;50.108;13.712;2024-03-08T02:54:55;48.95;;;22.75;;
59830;SDS011;45711;50.108;13.712;2024-03-08T02:57:21;45.42;;;23.17;;
59830;SDS011;45711;50.108;13.712;2024-03-08T02:59:47;60.00;;;22.90;;
59830;SDS011;45711;50.108;13.712;2024-03-08T03:02:12;52.42;;;22.50;;
59830;SDS011;45711;50.108;13.712;2024-03-08T03:04:39;47.58;;;22.80;;
59830;SDS011;45711;50.108;13.712;2024-03-08T03:07:05;46.70;;;23.20;;
59830;SDS011;45711;50.108;13.712;2024-03-08T03:09:31;49.20;;;24.10;;
59830;SDS011;45711;50.108;13.712;2024-03-08T03:11:59;52.85;;;23.13;;
59830;SDS011;45711;50.108;13.712;2024-03-08T03:14:24;47.33;;;21.67;;
59830;SDS011;45711;50.108;13.712;2024-03-08T03:16:52;50.15;;;22.75;;
59830;SDS011;45711;50.108;13.712;2024-03-08T03:19:17;52.83;;;24.50;;
59830;SDS011;45711;50.108;13.712;2024-03-08T03:21:43;51.28;;;22.40;;
59830;SDS011;45711;50.108;13.712;2024-03-08T03:24:09;47.38;;;22.75;;
59830;SDS011;45711;50.108;13.712;2024-03-08T03:26:35;51.20;;;22.90;;
59830;SDS011;45711;50.108;13.712;2024-03-08T03:29:05;47.88;;;22.25;;
59830;SDS011;45711;50.108;13.712;2024-03-08T03:31:34;51.85;;;22.20;;
59830;SDS011;45711;50.108;13.712;2024-03-08T03:33:59;45.35;;;22.30;;
59830;SDS011;45711;50.108;13.712;2024-03-08T03:36:28;47.28;;;21.77;;
59830;SDS011;45711;50.108;13.712;2024-03-08T03:38:53;49.65;;;22.25;;
59830;SDS011;45711;50.108;13.712;2024-03-08T03:41:37;41.70;;;20.90;;
59830;SDS011;45711;50.108;13.712;2024-03-08T03:44:05;45.92;;;22.38;;
59830;SDS011;45711;50.108;13.712;2024-03-08T03:46:34;50.78;;;22.38;;
59830;SDS011;45711;50.108;13.712;2024-03-08T03:48:59;47.20;;;21.25;;
59830;SDS011;45711;50.108;13.712;2024-03-08T03:51:25;48.67;;;21.65;;
59830;SDS011;45711;50.108;13.712;2024-03-08T03:53:51;49.67;;;22.80;;
59830;SDS011;45711;50.108;13.712;2024-03-08T03:56:18;53.47;;;22.55;;
59830;SDS011;45711;50.108;13.712;2024-03-08T03:58:43;44.28;;;22.17;;
59830;SDS011;45711;50.108;13.712;2024-03-08T04:01:13;58.88;;;23.83;;
59830;SDS011;45711;50.108;13.712;2024-03-08T04:03:41;46.67;;;22.50;;
59830;SDS011;45711;50.108;13.712;2024-03-08T04:06:08;51.30;;;22.20;;
59830;SDS011;45711;50.108;13.712;2024-03-08T04:08:33;49.08;;;23.40;;
59830;SDS011;45711;50.108;13.712;2024-03-08T04:10:59;45.80;;;22.08;;
59830;SDS011;45711;50.108;13.712;2024-03-08T04:13:25;46.85;;;22.63;;
59830;SDS011;45711;50.108;13.712;2024-03-08T04:15:51;45.97;;;23.15;;
59830;SDS011;45711;50.108;13.712;2024-03-08T04:18:18;45.15;;;23.75;;
59830;SDS011;45711;50.108;13.712;2024-03-08T04:20:44;45.30;;;22.30;;
59830;SDS011;45711;50.108;13.712;2024-03-08T04:23:10;54.65;;;23.73;;
59830;SDS011;45711;50.108;13.712;2024-03-08T04:25:36;45.70;;;22.90;;
59830;SDS011;45711;50.108;13.712;2024-03-08T04:28:01;49.83;;;23.15;;
59830;SDS011;45711;50.108;13.712;2024-03-08T04:30:27;63.00;;;25.83;;
59830;SDS011;45711;50.108;13.712;2024-03-08T04:32:53;55.42;;;23.80;;
59830;SDS011;45711;50.108;13.712;2024-03-08T04:35:20;52.90;;;22.60;;
59830;SDS011;45711;50.108;13.712;2024-03-08T04:37:46;51.75;;;22.60;;
59830;SDS011;45711;50.108;13.712;2024-03-08T04:40:11;48.78;;;23.27;;
59830;SDS011;45711;50.108;13.712;2024-03-08T04:42:37;50.42;;;22.92;;
59830;SDS011;45711;50.108;13.712;2024-03-08T04:45:06;52.60;;;22.52;;
59830;SDS011;45711;50.108;13.712;2024-03-08T04:47:36;60.80;;;22.52;;
59830;SDS011;45711;50.108;13.712;2024-03-08T04:50:02;59.63;;;27.80;;
59830;SDS011;45711;50.108;13.712;2024-03-08T04:52:29;51.33;;;23.98;;
59830;SDS011;45711;50.108;13.712;2024-03-08T04:54:54;49.58;;;23.80;;
59830;SDS011;45711;50.108;13.712;2024-03-08T04:57:20;48.03;;;23.77;;
59830;SDS011;45711;50.108;13.712;2024-03-08T04:59:46;55.25;;;23.75;;
59830;SDS011;45711;50.108;13.712;2024-03-08T05:02:11;49.50;;;23.95;;
59830;SDS011;45711;50.108;13.712;2024-03-08T05:04:37;53.30;;;23.90;;
59830;SDS011;45711;50.108;13.712;2024-03-08T05:07:03;44.35;;;23.88;;
59830;SDS011;45711;50.108;13.712;2024-03-08T05:09:33;44.53;;;22.55;;
59830;SDS011;45711;50.108;13.712;2024-03-08T05:12:00;50.35;;;24.02;;
59830;SDS011;45711;50.108;13.712;2024-03-08T05:14:26;54.78;;;24.10;;
59830;SDS011;45711;50.108;13.712;2024-03-08T05:16:52;50.28;;;24.83;;
59830;SDS011;45711;50.108;13.712;2024-03-08T05:19:18;52.75;;;24.77;;
59830;SDS011;45711;50.108;13.712;2024-03-08T05:21:44;49.92;;;23.23;;
59830;SDS011;45711;50.108;13.712;2024-03-08T05:24:10;47.42;;;22.85;;
59830;SDS011;45711;50.108;13.712;2024-03-08T05:26:37;54.05;;;23.35;;
59830;SDS011;45711;50.108;13.712;2024-03-08T05:29:03;58.70;;;23.67;;
59830;SDS011;45711;50.108;13.712;2024-03-08T05:31:28;53.28;;;24.75;;
59830;SDS011;45711;50.108;13.712;2024-03-08T05:34:01;49.45;;;23.30;;
59830;SDS011;45711;50.108;13.712;2024-03-08T05:36:26;60.35;;;23.70;;
59830;SDS011;45711;50.108;13.712;2024-03-08T05:38:52;51.25;;;24.15;;
59830;SDS011;45711;50.108;13.712;2024-03-08T05:41:19;58.97;;;24.88;;
59830;SDS011;45711;50.108;13.712;2024-03-08T05:43:46;55.30;;;23.95;;
59830;SDS011;45711;50.108;13.712;2024-03-08T05:46:15;60.78;;;25.30;;
59830;SDS011;45711;50.108;13.712;2024-03-08T05:48:40;65.50;;;25.63;;
59830;SDS011;45711;50.108;13.712;2024-03-08T05:51:08;49.50;;;23.20;;
59830;SDS011;45711;50.108;13.712;2024-03-08T05:53:35;58.28;;;24.27;;
59830;SDS011;45711;50.108;13.712;2024-03-08T05:56:00;51.33;;;23.63;;
59830;SDS011;45711;50.108;13.712;2024-03-08T05:58:27;42.45;;;23.13;;
59830;SDS011;45711;50.108;13.712;2024-03-08T06:00:56;49.65;;;24.15;;
59830;SDS011;45711;50.108;13.712;2024-03-08T06:03:22;47.00;;;23.50;;
59830;SDS011;45711;50.108;13.712;2024-03-08T06:05:51;66.10;;;23.98;;
59830;SDS011;45711;50.108;13.712;2024-03-08T06:08:16;48.65;;;23.20;;
59830;SDS011;45711;50.108;13.712;2024-03-08T06:10:44;48.70;;;23.35;;
59830;SDS011;45711;50.108;13.712;2024-03-08T06:13:09;47.22;;;22.95;;
59830;SDS011;45711;50.108;13.712;2024-03-08T06:15:38;48.72;;;24.73;;
59830;SDS011;45711;50.108;13.712;2024-03-08T06:18:05;52.38;;;25.42;;
59830;SDS011;45711;50.108;13.712;2024-03-08T06:20:32;52.25;;;25.83;;
59830;SDS011;45711;50.108;13.712;2024-03-08T06:23:01;56.25;;;23.58;;
59830;SDS011;45711;50.108;13.712;2024-03-08T06:25:26;60.15;;;25.83;;
59830;SDS011;45711;50.108;13.712;2024-03-08T06:27:52;51.72;;;24.55;;
59830;SDS011;45711;50.108;13.712;2024-03-08T06:30:18;50.03;;;23.67;;
59830;SDS011;45711;50.108;13.712;2024-03-08T06:32:45;52.25;;;25.30;;
59830;SDS011;45711;50.108;13.712;2024-03-08T06:35:14;52.65;;;24.27;;
59830;SDS011;45711;50.108;13.712;2024-03-08T06:37:41;54.63;;;23.75;;
59830;SDS011;45711;50.108;13.712;2024-03-08T06:40:09;51.83;;;24.30;;
59830;SDS011;45711;50.108;13.712;2024-03-08T06:42:38;55.05;;;24.15;;
59830;SDS011;45711;50.108;13.712;2024-03-08T06:45:04;53.83;;;23.20;;
59830;SDS011;45711;50.108;13.712;2024-03-08T06:47:30;48.28;;;23.20;;
59830;SDS011;45711;50.108;13.712;2024-03-08T06:49:56;55.58;;;24.25;;
59830;SDS011;45711;50.108;13.712;2024-03-08T06:52:23;61.38;;;25.55;;
59830;SDS011;45711;50.108;13.712;2024-03-08T06:54:48;49.20;;;23.55;;
59830;SDS011;45711;50.108;13.712;2024-03-08T06:57:14;51.95;;;24.67;;
59830;SDS011;45711;50.108;13.712;2024-03-08T06:59:41;50.42;;;25.67;;
59830;SDS011;45711;50.108;13.712;2024-03-08T07:02:07;56.33;;;25.55;;
59830;SDS011;45711;50.108;13.712;2024-03-08T07:04:34;56.30;;;26.77;;
59830;SDS011;45711;50.108;13.712;2024-03-08T07:07:03;59.33;;;26.85;;
59830;SDS011;45711;50.108;13.712;2024-03-08T07:09:30;49.10;;;24.83;;
59830;SDS011;45711;50.108;13.712;2024-03-08T07:11:55;49.80;;;25.48;;
59830;SDS011;45711;50.108;13.712;2024-03-08T07:14:21;48.78;;;25.85;;
59830;SDS011;45711;50.108;13.712;2024-03-08T07:16:49;42.40;;;24.33;;
59830;SDS011;45711;50.108;13.712;2024-03-08T07:19:16;41.95;;;22.63;;
59830;SDS011;45711;50.108;13.712;2024-03-08T07:21:42;38.58;;;20.95;;
59830;SDS011;45711;50.108;13.712;2024-03-08T07:24:08;40.38;;;23.15;;
59830;SDS011;45711;50.108;13.712;2024-03-08T07:26:44;38.25;;;20.73;;
59830;SDS011;45711;50.108;13.712;2024-03-08T07:29:10;42.38;;;21.65;;
59830;SDS011;45711;50.108;13.712;2024-03-08T07:31:35;68.65;;;23.73;;
59830;SDS011;45711;50.108;13.712;2024-03-08T07:34:16;42.22;;;22.38;;
59830;SDS011;45711;50.108;13.712;2024-03-08T07:36:41;38.53;;;20.83;;
59830;SDS011;45711;50.108;13.712;2024-03-08T07:39:07;39.85;;;21.88;;
59830;SDS011;45711;50.108;13.712;2024-03-08T07:41:36;42.72;;;23.23;;
59830;SDS011;45711;50.108;13.712;2024-03-08T07:44:04;35.45;;;21.13;;
59830;SDS011;45711;50.108;13.712;2024-03-08T07:46:29;37.40;;;22.13;;
59830;SDS011;45711;50.108;13.712;2024-03-08T07:48:55;34.38;;;20.02;;
59830;SDS011;45711;50.108;13.712;2024-03-08T07:51:20;37.20;;;21.15;;
59830;SDS011;45711;50.108;13.712;2024-03-08T07:53:46;38.33;;;20.75;;
59830;SDS011;45711;50.108;13.712;2024-03-08T07:56:12;38.28;;;21.88;;
59830;SDS011;45711;50.108;13.712;2024-03-08T07:58:38;36.92;;;21.38;;
59830;SDS011;45711;50.108;13.712;2024-03-08T08:01:07;37.05;;;21.15;;
59830;SDS011;45711;50.108;13.712;2024-03-08T08:03:32;35.00;;;19.08;;
59830;SDS011;45711;50.108;13.712;2024-03-08T08:05:58;37.42;;;21.05;;
59830;SDS011;45711;50.108;13.712;2024-03-08T08:08:23;30.70;;;19.52;;
59830;SDS011;45711;50.108;13.712;2024-03-08T08:10:51;33.67;;;18.25;;
59830;SDS011;45711;50.108;13.712;2024-03-08T08:13:16;30.65;;;17.05;;
59830;SDS011;45711;50.108;13.712;2024-03-08T08:15:43;33.70;;;18.35;;
59830;SDS011;45711;50.108;13.712;2024-03-08T08:18:10;30.73;;;18.17;;
59830;SDS011;45711;50.108;13.712;2024-03-08T08:20:36;28.63;;;17.77;;
59830;SDS011;45711;50.108;13.712;2024-03-08T08:23:02;28.38;;;17.63;;
59830;SDS011;45711;50.108;13.712;2024-03-08T08:25:28;27.88;;;16.65;;
59830;SDS011;45711;50.108;13.712;2024-03-08T08:27:54;29.30;;;16.70;;
59830;SDS011;45711;50.108;13.712;2024-03-08T08:30:19;32.97;;;17.45;;
59830;SDS011;45711;50.108;13.712;2024-03-08T08:32:47;27.27;;;17.00;;
59830;SDS011;45711;50.108;13.712;2024-03-08T08:35:15;33.10;;;17.42;;
59830;SDS011;45711;50.108;13.712;2024-03-08T08:37:40;32.65;;;17.20;;
59830;SDS011;45711;50.108;13.712;2024-03-08T08:40:06;29.17;;;16.13;;
59830;SDS011;45711;50.108;13.712;2024-03-08T08:42:39;26.35;;;16.17;;
59830;SDS011;45711;50.108;13.712;2024-03-08T08:45:05;25.38;;;15.45;;
59830;SDS011;45711;50.108;13.712;2024-03-08T08:47:34;30.45;;;15.77;;
59830;SDS011;45711;50.108;13.712;2024-03-08T08:50:00;28.42;;;15.68;;
59830;SDS011;45711;50.108;13.712;2024-03-08T08:52:27;29.13;;;16.38;;
59830;SDS011;45711;50.108;13.712;2024-03-08T08:54:54;27.77;;;15.70;;
59830;SDS011;45711;50.108;13.712;2024-03-08T08:57:20;29.00;;;17.90;;
59830;SDS011;45711;50.108;13.712;2024-03-08T08:59:45;28.67;;;16.92;;
59830;SDS011;45711;50.108;13.712;2024-03-08T09:02:11;30.02;;;16.83;;
59830;SDS011;45711;50.108;13.712;2024-03-08T09:04:38;28.33;;;16.45;;
59830;SDS011;45711;50.108;13.712;2024-03-08T09:07:03;28.67;;;16.40;;
59830;SDS011;45711;50.108;13.712;2024-03-08T09:09:32;26.63;;;15.95;;
59830;SDS011;45711;50.108;13.712;2024-03-08T09:11:58;24.52;;;14.60;;
59830;SDS011;45711;50.108;13.712;2024-03-08T09:14:24;29.75;;;17.63;;
59830;SDS011;45711;50.108;13.712;2024-03-08T09:16:51;23.80;;;14.82;;
59830;SDS011;45711;50.108;13.712;2024-03-08T09:19:16;25.23;;;15.13;;
59830;SDS011;45711;50.108;13.712;2024-03-08T09:21:44;29.25;;;16.58;;
59830;SDS011;45711;50.108;13.712;2024-03-08T09:24:10;31.42;;;16.08;;
59830;SDS011;45711;50.108;13.712;2024-03-08T09:26:37;32.08;;;16.65;;
59830;SDS011;45711;50.108;13.712;2024-03-08T09:29:03;29.70;;;15.50;;
59830;SDS011;45711;50.108;13.712;2024-03-08T09:31:28;31.17;;;16.45;;
59830;SDS011;45711;50.108;13.712;2024-03-08T09:33:54;31.88;;;17.40;;
59830;SDS011;45711;50.108;13.712;2024-03-08T09:36:19;30.80;;;15.50;;
59830;SDS011;45711;50.108;13.712;2024-03-08T09:38:45;27.55;;;17.35;;
59830;SDS011;45711;50.108;13.712;2024-03-08T09:41:10;33.08;;;18.30;;
59830;SDS011;45711;50.108;13.712;2024-03-08T09:43:39;37.88;;;18.10;;
59830;SDS011;45711;50.108;13.712;2024-03-08T09:46:04;31.83;;;17.30;;
59830;SDS011;45711;50.108;13.712;2024-03-08T09:48:32;29.63;;;17.63;;
59830;SDS011;45711;50.108;13.712;2024-03-08T09:50:59;32.60;;;18.15;;
59830;SDS011;45711;50.108;13.712;2024-03-08T09:53:25;29.83;;;15.38;;
59830;SDS011;45711;50.108;13.712;2024-03-08T09:55:51;64.63;;;18.55;;
59830;SDS011;45711;50.108;13.712;2024-03-08T09:58:17;25.60;;;14.10;;
59830;SDS011;45711;50.108;13.712;2024-03-08T10:00:59;33.47;;;17.95;;
59830;SDS011;45711;50.108;13.712;2024-03-08T10:03:27;26.98;;;15.05;;
59830;SDS011;45711;50.108;13.712;2024-03-08T10:05:54;29.27;;;15.10;;
59830;SDS011;45711;50.108;13.712;2024-03-08T10:08:25;29.98;;;15.88;;
59830;SDS011;45711;50.108;13.712;2024-03-08T10:10:51;39.70;;;14.55;;
59830;SDS011;45711;50.108;13.712;2024-03-08T10:13:16;29.42;;;16.50;;
59830;SDS011;45711;50.108;13.712;2024-03-08T10:18:52;29.27;;;15.88;;
59830;SDS011;45711;50.108;13.712;2024-03-08T10:54:30;28.15;;;13.98;;
59830;SDS011;45711;50.108;13.712;2024-03-08T10:56:57;25.15;;;13.38;;
59830;SDS011;45711;50.108;13.712;2024-03-08T10:59:24;31.20;;;15.20;;
59830;SDS011;45711;50.108;13.712;2024-03-08T11:01:54;29.45;;;13.90;;
59830;SDS011;45711;50.108;13.712;2024-03-08T11:04:20;25.13;;;13.80;;
59830;SDS011;45711;50.108;13.712;2024-03-08T11:06:48;27.83;;;13.50;;
59830;SDS011;45711;50.108;13.712;2024-03-08T11:09:27;22.17;;;12.15;;
59830;SDS011;45711;50.108;13.712;2024-03-08T11:14:46;22.70;;;12.63;;
59830;SDS011;45711;50.108;13.712;2024-03-08T11:17:16;24.73;;;13.05;;
59830;SDS011;45711;50.108;13.712;2024-03-08T11:19:47;22.50;;;12.95;;
59830;SDS011;45711;50.108;13.712;2024-03-08T11:22:21;22.52;;;11.95;;
59830;SDS011;45711;50.108;13.712;2024-03-08T11:24:59;27.65;;;13.38;;
59830;SDS011;45711;50.108;13.712;2024-03-08T11:27:28;24.65;;;11.65;;
59830;SDS011;45711;50.108;13.712;2024-03-08T11:30:01;24.42;;;12.68;;
59830;SDS011;45711;50.108;13.712;2024-03-08T11:32:36;24.00;;;13.38;;
59830;SDS011;45711;50.108;13.712;2024-03-08T11:35:05;25.63;;;13.85;;
59830;SDS011;45711;50.108;13.712;2024-03-08T11:37:33;21.10;;;11.77;;
59830;SDS011;45711;50.108;13.712;2024-03-08T11:40:11;24.52;;;11.88;;
59830;SDS011;45711;50.108;13.712;2024-03-08T11:42:43;26.98;;;12.40;;
59830;SDS011;45711;50.108;13.712;2024-03-08T11:45:09;25.58;;;12.88;;
59830;SDS011;45711;50.108;13.712;2024-03-08T11:47:42;21.20;;;11.40;;
59830;SDS011;45711;50.108;13.712;2024-03-08T11:50:11;22.48;;;13.75;;
59830;SDS011;45711;50.108;13.712;2024-03-08T11:52:37;25.98;;;12.57;;
59830;SDS011;45711;50.108;13.712;2024-03-08T11:55:04;21.08;;;12.15;;
59830;SDS011;45711;50.108;13.712;2024-03-08T11:57:31;19.67;;;10.65;;
59830;SDS011;45711;50.108;13.712;2024-03-08T11:59:57;18.70;;;10.77;;
59830;SDS011;45711;50.108;13.712;2024-03-08T12:02:24;27.02;;;12.52;;
59830;SDS011;45711;50.108;13.712;2024-03-08T12:04:55;24.15;;;12.02;;
59830;SDS011;45711;50.108;13.712;2024-03-08T12:07:21;19.45;;;9.73;;
59830;SDS011;45711;50.108;13.712;2024-03-08T12:12:42;25.88;;;9.38;;
59830;SDS011;45711;50.108;13.712;2024-03-08T12:15:08;19.35;;;10.93;;
59830;SDS011;45711;50.108;13.712;2024-03-08T12:17:36;21.90;;;10.55;;
59830;SDS011;45711;50.108;13.712;2024-03-08T12:20:10;27.67;;;11.48;;
59830;SDS011;45711;50.108;13.712;2024-03-08T12:22:42;20.85;;;11.70;;
59830;SDS011;45711;50.108;13.712;2024-03-08T12:25:08;17.27;;;10.23;;
59830;SDS011;45711;50.108;13.712;2024-03-08T12:27:37;18.58;;;10.25;;
59830;SDS011;45711;50.108;13.712;2024-03-08T12:30:15;21.27;;;10.73;;
59830;SDS011;45711;50.108;13.712;2024-03-08T12:32:50;53.28;;;13.55;;
59830;SDS011;45711;50.108;13.712;2024-03-08T12:35:18;25.50;;;10.82;;
59830;SDS011;45711;50.108;13.712;2024-03-08T12:37:47;31.33;;;10.05;;
59830;SDS011;45711;50.108;13.712;2024-03-08T12:40:14;21.77;;;10.52;;
59830;SDS011;45711;50.108;13.712;2024-03-08T12:42:43;18.20;;;10.88;;
59830;SDS011;45711;50.108;13.712;2024-03-08T12:45:09;52.30;;;11.60;;
59830;SDS011;45711;50.108;13.712;2024-03-08T12:47:37;20.48;;;10.73;;
59830;SDS011;45711;50.108;13.712;2024-03-08T12:50:03;20.17;;;11.13;;
59830;SDS011;45711;50.108;13.712;2024-03-08T12:52:29;22.25;;;10.70;;
59830;SDS011;45711;50.108;13.712;2024-03-08T12:54:55;25.13;;;9.60;;
59830;SDS011;45711;50.108;13.712;2024-03-08T12:57:28;22.48;;;10.82;;
59830;SDS011;45711;50.108;13.712;2024-03-08T12:59:55;29.05;;;9.93;;
59830;SDS011;45711;50.108;13.712;2024-03-08T13:02:21;37.83;;;9.38;;
59830;SDS011;45711;50.108;13.712;2024-03-08T13:04:49;20.23;;;10.68;;
59830;SDS011;45711;50.108;13.712;2024-03-08T13:07:22;17.58;;;10.52;;
59830;SDS011;45711;50.108;13.712;2024-03-08T13:09:49;16.42;;;8.95;;
59830;SDS011;45711;50.108;13.712;2024-03-08T13:12:15;20.25;;;10.10;;
59830;SDS011;45711;50.108;13.712;2024-03-08T13:14:40;18.35;;;9.02;;
59830;SDS011;45711;50.108;13.712;2024-03-08T13:17:10;20.30;;;9.70;;
59830;SDS011;45711;50.108;13.712;2024-03-08T13:19:38;17.83;;;8.80;;
59830;SDS011;45711;50.108;13.712;2024-03-08T13:22:04;17.17;;;9.55;;
59830;SDS011;45711;50.108;13.712;2024-03-08T13:24:30;16.58;;;9.65;;
59830;SDS011;45711;50.108;13.712;2024-03-08T13:26:56;21.05;;;9.57;;
59830;SDS011;45711;50.108;13.712;2024-03-08T13:29:24;21.33;;;8.55;;
59830;SDS011;45711;50.108;13.712;2024-03-08T13:31:50;18.85;;;9.32;;
59830;SDS011;45711;50.108;13.712;2024-03-08T13:34:18;16.88;;;9.32;;
59830;SDS011;45711;50.108;13.712;2024-03-08T13:36:43;15.60;;;9.32;;
59830;SDS011;45711;50.108;13.712;2024-03-08T13:39:11;19.35;;;10.35;;
59830;SDS011;45711;50.108;13.712;2024-03-08T13:41:40;19.23;;;10.73;;
59830;SDS011;45711;50.108;13.712;2024-03-08T13:44:06;19.15;;;10.00;;
59830;SDS011;45711;50.108;13.712;2024-03-08T13:46:32;18.77;;;10.18;;
59830;SDS011;45711;50.108;13.712;2024-03-08T13:48:58;17.92;;;9.70;;
59830;SDS011;45711;50.108;13.712;2024-03-08T13:51:32;17.48;;;10.73;;
59830;SDS011;45711;50.108;13.712;2024-03-08T13:53:58;19.90;;;10.32;;
59830;SDS011;45711;50.108;13.712;2024-03-08T13:56:25;20.05;;;8.75;;
59830;SDS011;45711;50.108;13.712;2024-03-08T13:58:51;17.80;;;10.18;;
59830;SDS011;45711;50.108;13.712;2024-03-08T14:01:17;21.65;;;10.85;;
59830;SDS011;45711;50.108;13.712;2024-03-08T14:03:42;27.08;;;10.32;;
59830;SDS011;45711;50.108;13.712;2024-03-08T14:06:08;16.63;;;10.45;;
59830;SDS011;45711;50.108;13.712;2024-03-08T14:08:35;16.67;;;10.20;;
59830;SDS011;45711;50.108;13.712;2024-03-08T14:11:03;15.98;;;9.38;;
59830;SDS011;45711;50.108;13.712;2024-03-08T14:13:36;15.52;;;8.80;;
59830;SDS011;45711;50.108;13.712;2024-03-08T14:16:06;16.70;;;9.43;;
59830;SDS011;45711;50.108;13.712;2024-03-08T14:18:34;18.30;;;8.98;;
59830;SDS011;45711;50.108;13.712;2024-03-08T14:21:00;17.08;;;9.18;;
59830;SDS011;45711;50.108;13.712;2024-03-08T14:23:25;15.43;;;8.43;;
59830;SDS011;45711;50.108;13.712;2024-03-08T14:25:56;20.90;;;9.70;;
59830;SDS011;45711;50.108;13.712;2024-03-08T14:28:24;15.75;;;8.65;;
59830;SDS011;45711;50.108;13.712;2024-03-08T14:31:00;14.10;;;8.35;;
59830;SDS011;45711;50.108;13.712;2024-03-08T14:33:37;15.10;;;9.00;;
59830;SDS011;45711;50.108;13.712;2024-03-08T14:39:21;21.33;;;11.00;;
59830;SDS011;45711;50.108;13.712;2024-03-08T14:44:35;14.15;;;7.60;;
59830;SDS011;45711;50.108;13.712;2024-03-08T14:47:03;16.25;;;8.93;;
59830;SDS011;45711;50.108;13.712;2024-03-08T14:49:30;16.42;;;9.70;;
59830;SDS011;45711;50.108;13.712;2024-03-08T14:52:00;17.42;;;9.30;;
59830;SDS011;45711;50.108;13.712;2024-03-08T14:54:26;18.77;;;9.02;;
59830;SDS011;45711;50.108;13.712;2024-03-08T14:56:54;12.82;;;7.78;;
59830;SDS011;45711;50.108;13.712;2024-03-08T14:59:23;36.20;;;9.27;;